Time;durP1;ratioP1;P1;durP2;ratioP2;P2;SDS_P1;SDS_P2;PMS_P1;PMS_P2;Temp;Humidity;BMP_temperature;BMP_pressure;BME280_temperature;BME280_humidity;BME280_pressure;Samples;Min_cycle;Max_cycle;Signal;HPM_P1;HPM_P2
2021/03/18 04:46:17;;;;;;;10.23;8.60;;;;;;;4.03;69.59;93762.76;833928;71;30298;-76
2021/03/18 05:01:12;;;;;;;12.60;8.68;;;;;;;3.87;70.94;93774.22;827975;71;30438;-79
2021/03/18 05:16:26;;;;;;;10.63;8.25;;;;;;;3.84;71.20;93792.39;827728;71;31685;-76
2021/03/18 05:31:08;;;;;;;9.05;7.47;;;;;;;3.88;70.83;93798.62;822832;70;28712;-76
2021/03/18 05:46:18;;;;;;;9.40;7.25;;;;;;;4.10;69.70;93806.63;833652;71;31740;-75
2021/03/18 06:01:20;;;;;;;6.80;6.05;;;;;;;4.26;68.43;93820.31;818866;71;32094;-75
2021/03/18 06:16:19;;;;;;;8.33;7.20;;;;;;;4.17;69.20;93799.32;828759;71;31706;-76
2021/03/18 06:31:18;;;;;;;9.65;6.95;;;;;;;4.77;68.41;93839.09;827175;71;31713;-75
2021/03/18 06:46:19;;;;;;;8.45;7.55;;;;;;;5.38;66.69;93847.61;827752;71;30410;-76
2021/03/18 07:01:15;;;;;;;9.48;6.83;;;;;;;5.96;64.35;93859.92;833536;71;33145;-78
2021/03/18 07:16:10;;;;;;;7.28;6.15;;;;;;;6.29;61.36;93863.55;823802;70;30349;-76
2021/03/18 07:31:25;;;;;;;8.13;6.25;;;;;;;6.67;59.56;93862.88;833368;71;32689;-78
2021/03/18 07:46:16;;;;;;;6.53;5.40;;;;;;;7.40;56.81;93867.70;833599;71;30657;-77
2021/03/18 08:01:39;;;;;;;8.75;6.45;;;;;;;8.42;54.94;93870.54;833459;71;32885;-74
2021/03/18 08:16:29;;;;;;;8.30;6.90;;;;;;;8.94;53.66;93881.34;819496;71;32812;-76
2021/03/18 08:31:24;;;;;;;7.95;7.17;;;;;;;9.26;53.90;93895.37;827810;71;32166;-77
2021/03/18 08:46:13;;;;;;;7.62;6.20;;;;;;;9.99;50.79;93882.47;828068;71;30885;-77
2021/03/18 09:01:38;;;;;;;6.70;5.78;;;;;;;10.26;49.04;93887.35;827634;71;30839;-78
2021/03/18 09:16:12;;;;;;;10.55;6.72;;;;;;;9.96;49.27;93895.41;827933;71;30336;-76
2021/03/18 09:31:24;;;;;;;8.78;6.53;;;;;;;11.18;47.78;93895.44;794026;74;32944;-80
2021/03/18 09:46:14;;;;;;;7.10;6.40;;;;;;;10.55;49.21;93917.06;827909;71;32731;-79
2021/03/18 10:01:16;;;;;;;5.87;5.37;;;;;;;9.74;52.38;93938.09;827115;71;29745;-77
2021/03/18 10:16:13;;;;;;;5.80;5.30;;;;;;;8.45;57.02;93968.52;828070;71;32624;-76
2021/03/18 10:31:08;;;;;;;5.90;4.95;;;;;;;7.91;59.76;93960.19;828156;71;30135;-77
2021/03/18 10:46:20;;;;;;;4.67;4.28;;;;;;;8.11;56.62;93957.80;833863;71;32657;-78
2021/03/18 11:01:17;;;;;;;5.55;5.05;;;;;;;7.52;57.71;93965.67;827713;71;32704;-77
2021/03/18 11:16:12;;;;;;;4.97;4.47;;;;;;;8.36;54.78;93959.23;829089;71;30359;-77
2021/03/18 11:31:14;;;;;;;6.35;5.60;;;;;;;8.21;55.64;93959.46;833947;71;29816;-78
2021/03/18 11:46:08;;;;;;;5.40;4.90;;;;;;;8.31;51.67;93963.76;829185;71;29727;-75
2021/03/18 12:01:17;;;;;;;6.05;5.47;;;;;;;8.25;54.40;93959.13;834984;71;32681;-76
2021/03/18 12:16:09;;;;;;;7.67;6.87;;;;;;;8.27;52.46;93953.09;827711;71;30285;-77
2021/03/18 12:31:19;;;;;;;7.20;6.53;;;;;;;8.28;53.00;93953.35;833565;71;32716;-78
2021/03/18 12:46:09;;;;;;;7.22;6.42;;;;;;;8.41;51.83;93957.88;833948;71;30683;-79
2021/03/18 13:01:15;;;;;;;7.95;6.80;;;;;;;8.04;53.62;93957.37;828712;71;32775;-79
2021/03/18 13:16:15;;;;;;;8.83;6.85;;;;;;;7.58;53.47;93978.91;833876;71;32758;-78
2021/03/18 13:31:14;;;;;;;7.80;7.00;;;;;;;9.24;58.80;93988.58;827434;71;32682;-78
2021/03/18 13:46:09;;;;;;;7.62;6.87;;;;;;;7.47;52.69;93968.36;829063;71;30286;-78
2021/03/18 14:01:10;;;;;;;7.47;6.78;;;;;;;7.49;52.68;93997.03;828444;71;29952;-78
2021/03/18 14:16:10;;;;;;;8.15;7.17;;;;;;;7.43;53.05;94002.06;829216;71;30286;-78
2021/03/18 15:01:34;;;;;;;11.30;9.10;;;;;;;6.41;58.76;93989.55;828032;71;29694;-77
2021/03/18 15:16:09;;;;;;;11.28;8.75;;;;;;;6.23;58.90;93958.95;828299;71;29695;-77
2021/03/18 15:31:14;;;;;;;12.43;10.23;;;;;;;6.35;60.13;93995.31;833892;71;32706;-77
2021/03/18 15:46:18;;;;;;;14.90;12.00;;;;;;;6.23;60.65;93992.28;818539;71;33778;-77
2021/03/18 16:01:09;;;;;;;16.67;12.47;;;;;;;5.99;60.65;93983.08;835551;70;29757;-78
2021/03/18 16:16:08;;;;;;;15.95;12.10;;;;;;;5.63;61.19;93989.23;816907;71;29455;-77
2021/03/18 16:31:17;;;;;;;21.33;13.70;;;;;;;5.22;62.58;94003.73;828297;71;29762;-76
2021/03/18 16:46:19;;;;;;;21.77;15.35;;;;;;;4.84;64.50;94021.27;827038;71;31385;-76
2021/03/18 17:01:09;;;;;;;22.77;16.20;;;;;;;4.55;65.86;94015.33;828200;71;28074;-78
2021/03/18 17:16:14;;;;;;;27.87;18.55;;;;;;;4.27;66.74;94006.24;827396;71;32712;-78
2021/03/18 17:31:14;;;;;;;34.48;20.50;;;;;;;4.07;67.28;94007.78;827383;71;32704;-79
2021/03/18 17:46:14;;;;;;;26.62;18.77;;;;;;;3.95;67.70;94008.05;827195;71;33141;-76
